createdAt,value
2018-12-24T00:01:37.023Z,10.50
2018-12-24T00:04:04.287Z,10.50
2018-12-24T00:06:31.788Z,10.40
2018-12-24T00:08:59.251Z,10.50
2018-12-24T00:11:26.649Z,10.50
2018-12-24T00:13:53.956Z,10.50
2018-12-24T00:16:21.320Z,10.50
2018-12-24T00:18:48.690Z,10.50
2018-12-24T00:21:16.462Z,10.50
2018-12-24T00:23:43.868Z,10.50
2018-12-24T00:29:08.157Z,10.50
2018-12-24T00:31:35.581Z,10.50
2018-12-24T00:34:03.025Z,10.50
2018-12-24T00:36:30.472Z,10.60
2018-12-24T00:38:57.916Z,10.60
2018-12-24T00:41:25.628Z,10.60
2018-12-24T00:43:53.102Z,10.60
2018-12-24T00:46:20.545Z,10.60
2018-12-24T00:48:48.383Z,10.60
2018-12-24T00:51:15.738Z,10.60
2018-12-24T00:53:43.214Z,10.60
2018-12-24T00:56:11.735Z,10.60
2018-12-24T00:58:39.168Z,10.60
2018-12-24T01:01:06.542Z,10.60
2018-12-24T01:03:33.954Z,10.60
2018-12-24T01:06:01.413Z,10.60
2018-12-24T01:08:28.940Z,10.60
2018-12-24T01:10:56.415Z,10.60
2018-12-24T01:13:23.886Z,10.60
2018-12-24T01:15:51.321Z,10.60
2018-12-24T01:18:19.104Z,10.60
2018-12-24T01:20:46.611Z,10.60
2018-12-24T01:23:14.125Z,10.60
2018-12-24T01:25:42.623Z,10.60
2018-12-24T01:28:10.396Z,10.60
2018-12-24T01:30:37.775Z,10.60
2018-12-24T01:33:06.351Z,10.60
2018-12-24T01:35:33.797Z,10.60
2018-12-24T01:38:01.561Z,10.60
2018-12-24T01:40:28.939Z,10.60
2018-12-24T01:42:56.419Z,10.60
2018-12-24T01:45:24.305Z,10.60
2018-12-24T01:47:51.591Z,10.60
2018-12-24T01:50:19.159Z,10.60
2018-12-24T01:52:46.978Z,10.60
2018-12-24T01:55:14.391Z,10.60
2018-12-24T01:57:41.756Z,10.60
2018-12-24T02:00:09.463Z,10.60
2018-12-24T02:02:37.018Z,10.60
2018-12-24T02:05:04.526Z,10.60
2018-12-24T02:07:32.275Z,10.60
2018-12-24T02:09:59.729Z,10.70
2018-12-24T02:12:26.989Z,10.60
2018-12-24T02:14:54.368Z,10.70
2018-12-24T02:17:22.186Z,10.60
2018-12-24T02:19:50.035Z,10.70
2018-12-24T02:22:17.493Z,10.70
2018-12-24T02:24:44.947Z,10.70
2018-12-24T02:27:12.745Z,10.70
2018-12-24T02:29:40.173Z,10.70
2018-12-24T02:32:07.594Z,10.70
2018-12-24T02:34:35.221Z,10.60
2018-12-24T02:37:02.757Z,10.10
2018-12-24T02:39:30.294Z,9.70
2018-12-24T02:41:58.288Z,9.50
2018-12-24T02:44:25.736Z,9.30
2018-12-24T02:46:53.314Z,9.20
2018-12-24T02:49:20.776Z,9.00
2018-12-24T02:51:48.185Z,8.90
2018-12-24T02:54:15.524Z,8.90
2018-12-24T02:56:42.996Z,8.80
2018-12-24T02:59:10.452Z,8.80
2018-12-24T03:01:38.047Z,8.70
2018-12-24T03:04:05.526Z,8.70
2018-12-24T03:06:32.988Z,8.50
2018-12-24T03:09:00.538Z,8.40
2018-12-24T03:11:28.017Z,8.30
2018-12-24T03:13:55.535Z,8.20
2018-12-24T03:16:23.230Z,8.20
2018-12-24T03:18:50.696Z,8.20
2018-12-24T03:21:18.264Z,8.10
2018-12-24T03:23:46.167Z,8.00
2018-12-24T03:26:13.553Z,8.10
2018-12-24T03:28:40.958Z,8.00
2018-12-24T03:31:08.383Z,7.90
2018-12-24T03:33:35.849Z,7.90
2018-12-24T03:36:03.522Z,7.80
2018-12-24T03:38:30.839Z,7.80
2018-12-24T03:40:58.280Z,7.80
2018-12-24T03:43:25.721Z,7.70
2018-12-24T03:45:53.500Z,7.60
2018-12-24T03:48:21.039Z,7.60
2018-12-24T03:50:48.589Z,7.40
2018-12-24T03:53:16.053Z,7.40
2018-12-24T03:55:43.483Z,7.30
2018-12-24T03:58:10.912Z,7.20
2018-12-24T04:00:38.324Z,7.20
2018-12-24T04:03:06.128Z,7.10
2018-12-24T04:05:33.540Z,7.00
2018-12-24T04:08:00.990Z,7.00
2018-12-24T04:10:28.446Z,6.90
2018-12-24T04:12:55.867Z,6.90
2018-12-24T04:15:23.457Z,6.90
2018-12-24T04:17:50.979Z,6.80
2018-12-24T04:20:18.369Z,6.70
2018-12-24T04:22:45.805Z,6.70
2018-12-24T04:25:13.429Z,6.60
2018-12-24T04:27:41.963Z,6.60
2018-12-24T04:30:09.864Z,6.60
2018-12-24T04:32:37.634Z,6.50
2018-12-24T04:35:05.065Z,6.50
2018-12-24T04:37:32.332Z,6.40
2018-12-24T04:39:59.651Z,6.50
2018-12-24T04:42:27.127Z,6.40
2018-12-24T04:44:54.632Z,6.40
2018-12-24T04:47:21.976Z,6.40
2018-12-24T04:49:50.045Z,6.40
2018-12-24T04:52:17.487Z,6.30
2018-12-24T04:54:44.960Z,6.30
2018-12-24T04:57:12.287Z,6.30
2018-12-24T04:59:39.730Z,6.20
2018-12-24T05:02:07.147Z,6.20
2018-12-24T05:04:34.438Z,6.20
2018-12-24T05:07:01.885Z,6.10
2018-12-24T05:09:29.309Z,6.10
2018-12-24T05:11:56.706Z,6.10
2018-12-24T05:14:24.043Z,6.00
2018-12-24T05:16:51.541Z,5.90
2018-12-24T05:19:19.035Z,5.90
2018-12-24T05:21:46.570Z,5.90
2018-12-24T05:24:14.221Z,5.80
2018-12-24T05:26:41.748Z,5.80
2018-12-24T05:29:09.191Z,5.80
2018-12-24T05:31:36.601Z,5.80
2018-12-24T05:34:03.993Z,5.70
2018-12-24T05:36:31.446Z,5.70
2018-12-24T05:38:58.824Z,5.60
2018-12-24T05:41:26.331Z,5.60
2018-12-24T05:43:53.783Z,5.60
2018-12-24T05:46:21.463Z,5.60
2018-12-24T05:48:48.934Z,5.70
2018-12-24T05:51:16.519Z,5.60
2018-12-24T05:53:43.940Z,5.60
2018-12-24T05:56:11.645Z,5.60
2018-12-24T05:58:39.214Z,5.60
2018-12-24T06:01:07.598Z,5.60
2018-12-24T06:03:35.234Z,5.60
2018-12-24T06:06:02.809Z,5.60
2018-12-24T06:08:30.410Z,5.70
2018-12-24T06:10:58.100Z,5.60
2018-12-24T06:13:25.539Z,5.70
2018-12-24T06:15:52.971Z,5.60
2018-12-24T06:18:20.363Z,5.60
2018-12-24T06:20:47.792Z,5.60
2018-12-24T06:23:15.166Z,5.60
2018-12-24T06:25:42.599Z,5.60
2018-12-24T06:28:10.085Z,5.60
2018-12-24T06:30:37.480Z,5.60
2018-12-24T06:33:04.860Z,5.60
2018-12-24T06:35:32.249Z,5.60
2018-12-24T06:37:59.656Z,5.60
2018-12-24T06:40:27.131Z,5.60
2018-12-24T06:42:54.782Z,5.50
2018-12-24T06:45:22.222Z,5.50
2018-12-24T06:47:49.609Z,5.50
2018-12-24T06:50:17.067Z,5.50
2018-12-24T06:52:44.646Z,5.50
2018-12-24T06:55:12.259Z,5.50
2018-12-24T06:57:39.675Z,5.40
2018-12-24T07:00:07.086Z,5.50
2018-12-24T07:02:34.504Z,5.40
2018-12-24T07:05:02.302Z,5.50
2018-12-24T07:07:29.893Z,5.40
2018-12-24T07:09:58.331Z,5.50
2018-12-24T07:12:25.767Z,5.50
2018-12-24T07:14:53.196Z,5.50
2018-12-24T07:17:21.021Z,5.40
2018-12-24T07:19:48.712Z,5.50
2018-12-24T07:22:16.166Z,5.50
2018-12-24T07:24:43.597Z,5.40
2018-12-24T07:27:11.151Z,5.40
2018-12-24T07:29:39.248Z,5.30
2018-12-24T07:32:06.760Z,5.30
2018-12-24T07:34:34.538Z,5.30
2018-12-24T07:37:02.171Z,5.40
2018-12-24T07:39:29.640Z,5.30
2018-12-24T07:41:58.098Z,5.40
2018-12-24T07:44:25.690Z,5.30
2018-12-24T07:46:53.167Z,5.30
2018-12-24T07:49:20.509Z,5.30
2018-12-24T07:51:47.920Z,5.30
2018-12-24T07:54:15.406Z,5.30
2018-12-24T07:56:42.905Z,5.30
2018-12-24T07:59:10.357Z,5.20
2018-12-24T08:01:37.824Z,5.20
2018-12-24T08:04:05.119Z,5.20
2018-12-24T08:06:33.199Z,5.20
2018-12-24T08:09:00.675Z,5.30
2018-12-24T08:11:28.112Z,5.30
2018-12-24T08:13:55.568Z,5.30
2018-12-24T08:16:23.009Z,5.30
2018-12-24T08:18:50.286Z,5.30
2018-12-24T08:21:18.176Z,5.20
2018-12-24T08:23:45.627Z,5.20
2018-12-24T08:26:13.178Z,5.20
2018-12-24T08:28:40.571Z,5.20
2018-12-24T08:31:08.048Z,5.30
2018-12-24T08:33:35.511Z,5.30
2018-12-24T08:36:03.183Z,5.20
2018-12-24T08:38:30.577Z,5.20
2018-12-24T08:40:58.539Z,5.20
2018-12-24T08:43:25.928Z,5.20
2018-12-24T08:45:53.479Z,5.30
2018-12-24T08:48:21.180Z,5.30
2018-12-24T08:50:48.555Z,5.30
2018-12-24T08:53:15.977Z,5.30
2018-12-24T08:55:43.339Z,5.30
2018-12-24T08:58:12.281Z,5.40
2018-12-24T09:00:40.263Z,5.40
2018-12-24T09:03:07.612Z,5.40
2018-12-24T09:05:35.137Z,5.30
2018-12-24T09:08:02.566Z,5.40
2018-12-24T09:10:30.098Z,5.40
2018-12-24T09:12:57.948Z,5.40
2018-12-24T09:15:25.450Z,5.40
2018-12-24T09:17:53.384Z,5.40
2018-12-24T09:20:21.465Z,5.40
2018-12-24T09:22:49.272Z,5.30
2018-12-24T09:25:16.721Z,5.40
2018-12-24T09:27:44.199Z,5.40
2018-12-24T09:30:14.669Z,5.40
2018-12-24T09:32:42.160Z,5.40
2018-12-24T09:35:09.605Z,5.40
2018-12-24T09:37:37.133Z,5.40
2018-12-24T09:40:05.640Z,5.40
2018-12-24T09:42:33.402Z,5.40
2018-12-24T09:45:00.834Z,5.50
2018-12-24T09:47:31.288Z,5.50
2018-12-24T09:49:58.855Z,5.50
2018-12-24T09:52:26.289Z,5.50
2018-12-24T09:54:54.048Z,5.50
2018-12-24T09:57:21.487Z,5.50
2018-12-24T09:59:49.105Z,5.50
2018-12-24T10:02:17.006Z,5.50
2018-12-24T10:04:49.769Z,5.50
2018-12-24T10:07:40.399Z,5.50
2018-12-24T10:10:16.383Z,5.60
2018-12-24T10:12:43.809Z,5.60
2018-12-24T10:15:11.888Z,5.60
2018-12-24T10:17:39.283Z,5.70
2018-12-24T10:20:06.664Z,5.70
2018-12-24T10:22:34.181Z,5.70
2018-12-24T10:25:01.675Z,5.70
2018-12-24T10:27:29.124Z,5.70
2018-12-24T10:29:56.530Z,5.70
2018-12-24T10:32:23.979Z,5.80
2018-12-24T10:34:51.688Z,5.70
2018-12-24T10:37:19.140Z,5.70
2018-12-24T10:39:46.514Z,5.70
2018-12-24T10:42:13.926Z,5.70
2018-12-24T10:44:41.722Z,5.80
2018-12-24T10:47:09.107Z,5.70
2018-12-24T10:49:36.465Z,5.80
2018-12-24T10:52:03.949Z,5.80
2018-12-24T10:54:31.521Z,5.80
2018-12-24T10:56:58.783Z,5.80
2018-12-24T10:59:26.131Z,5.80
2018-12-24T11:01:53.544Z,5.80
2018-12-24T11:04:21.198Z,5.80
2018-12-24T11:06:48.920Z,5.80
2018-12-24T11:09:16.473Z,5.90
2018-12-24T11:11:43.877Z,5.90
2018-12-24T11:14:11.329Z,6.00
2018-12-24T11:16:39.691Z,6.00
2018-12-24T11:19:07.186Z,6.10
2018-12-24T11:21:34.652Z,6.10
2018-12-24T11:24:02.008Z,6.10
2018-12-24T11:26:29.640Z,6.20
2018-12-24T11:28:57.022Z,6.20
2018-12-24T11:31:24.511Z,6.20
2018-12-24T11:33:51.800Z,6.20
2018-12-24T11:36:19.109Z,6.30
2018-12-24T11:38:46.652Z,6.30
2018-12-24T11:41:14.476Z,6.20
2018-12-24T11:43:41.981Z,6.20
2018-12-24T11:46:09.398Z,6.20
2018-12-24T11:48:36.861Z,6.20
2018-12-24T11:51:04.322Z,6.30
2018-12-24T11:53:31.926Z,6.30
2018-12-24T11:55:59.261Z,6.20
2018-12-24T11:58:26.675Z,6.10
2018-12-24T12:00:54.332Z,6.10
2018-12-24T12:03:21.796Z,6.10
2018-12-24T12:05:49.209Z,6.10
2018-12-24T12:08:16.720Z,6.00
2018-12-24T12:10:44.180Z,6.10
2018-12-24T12:13:11.670Z,6.00
2018-12-24T12:15:42.752Z,6.00
2018-12-24T12:18:08.422Z,6.00
2018-12-24T12:20:36.893Z,6.00
2018-12-24T12:23:04.307Z,6.00
2018-12-24T12:25:31.739Z,6.10
2018-12-24T12:27:59.123Z,6.10
2018-12-24T12:30:26.568Z,6.00
2018-12-24T12:32:55.111Z,6.10
2018-12-24T12:35:22.574Z,6.10
2018-12-24T12:37:49.980Z,6.10
2018-12-24T12:40:21.990Z,6.20
2018-12-24T12:42:49.315Z,6.20
2018-12-24T12:45:17.572Z,6.20
2018-12-24T12:47:44.999Z,6.20
2018-12-24T12:50:12.756Z,6.20
2018-12-24T12:52:40.295Z,6.20
2018-12-24T12:55:07.703Z,6.20
2018-12-24T12:57:35.254Z,6.10
2018-12-24T13:00:02.707Z,6.10
2018-12-24T13:02:30.263Z,6.10
2018-12-24T13:04:57.684Z,6.10
2018-12-24T13:07:25.104Z,6.10
2018-12-24T13:09:52.600Z,6.10
2018-12-24T13:12:20.042Z,6.20
2018-12-24T13:14:47.547Z,6.10
2018-12-24T13:17:15.035Z,6.20
2018-12-24T13:19:57.679Z,6.10
2018-12-24T13:22:25.408Z,6.20
2018-12-24T13:24:53.148Z,6.20
2018-12-24T13:27:20.671Z,6.20
2018-12-24T13:29:48.455Z,6.10
2018-12-24T13:32:15.848Z,6.10
2018-12-24T13:34:43.583Z,6.00
2018-12-24T13:37:11.053Z,6.00
2018-12-24T13:39:39.071Z,6.10
2018-12-24T13:42:06.580Z,6.10
2018-12-24T13:44:34.046Z,6.10
2018-12-24T13:47:01.562Z,6.00
2018-12-24T13:49:29.010Z,6.10
2018-12-24T13:51:56.634Z,6.10
2018-12-24T13:54:24.281Z,6.10
2018-12-24T13:56:51.715Z,6.00
2018-12-24T13:59:19.289Z,6.10
2018-12-24T14:01:46.881Z,6.10
2018-12-24T14:04:14.371Z,6.10
2018-12-24T14:06:41.888Z,6.10
2018-12-24T14:09:09.522Z,6.10
2018-12-24T14:11:36.909Z,6.10
2018-12-24T14:14:04.340Z,6.10
2018-12-24T14:16:31.829Z,6.00
2018-12-24T14:18:59.272Z,5.90
2018-12-24T14:21:26.687Z,5.80
2018-12-24T14:23:54.153Z,5.80
2018-12-24T14:26:22.095Z,5.90
2018-12-24T14:28:49.662Z,5.80
2018-12-24T14:31:17.498Z,5.80
2018-12-24T14:33:45.201Z,5.80
2018-12-24T14:36:12.618Z,5.80
2018-12-24T14:38:41.130Z,5.80
2018-12-24T14:41:08.837Z,5.70
2018-12-24T14:43:36.646Z,5.70
2018-12-24T14:46:04.352Z,5.80
2018-12-24T14:48:31.871Z,5.70
2018-12-24T14:50:59.556Z,5.70
2018-12-24T14:53:28.061Z,5.70
2018-12-24T14:55:55.501Z,5.70
2018-12-24T14:58:22.884Z,5.70
2018-12-24T15:00:50.183Z,5.70
2018-12-24T15:03:17.687Z,5.70
2018-12-24T15:05:45.394Z,5.70
2018-12-24T15:08:12.921Z,5.60
2018-12-24T15:10:40.378Z,5.60
2018-12-24T15:13:08.249Z,5.60
2018-12-24T15:15:35.791Z,5.60
2018-12-24T15:18:03.425Z,5.60
2018-12-24T15:20:30.862Z,5.60
2018-12-24T15:22:58.331Z,5.50
2018-12-24T15:25:25.779Z,5.40
2018-12-24T15:27:53.697Z,5.40
2018-12-24T15:30:21.359Z,5.40
2018-12-24T15:32:48.980Z,5.40
2018-12-24T15:35:16.572Z,5.40
2018-12-24T15:37:44.066Z,5.40
2018-12-24T15:40:11.786Z,5.40
2018-12-24T15:42:39.333Z,5.40
2018-12-24T15:45:07.275Z,5.40
2018-12-24T15:47:36.264Z,5.40
2018-12-24T15:50:04.281Z,5.40
2018-12-24T15:52:32.281Z,5.40
2018-12-24T15:55:00.263Z,5.40
2018-12-24T15:57:27.748Z,5.40
2018-12-24T15:59:55.283Z,5.40
2018-12-24T16:02:22.837Z,5.40
2018-12-24T16:04:50.339Z,5.40
2018-12-24T16:07:17.821Z,5.40
2018-12-24T16:09:45.292Z,5.30
2018-12-24T16:12:12.946Z,5.20
2018-12-24T16:14:40.437Z,5.20
2018-12-24T16:17:08.014Z,5.20
2018-12-24T16:19:35.611Z,5.10
2018-12-24T16:22:03.202Z,5.20
2018-12-24T16:24:30.594Z,5.20
2018-12-24T16:26:58.635Z,5.10
2018-12-24T16:29:26.874Z,5.10
2018-12-24T16:31:54.264Z,5.10
2018-12-24T16:34:21.716Z,5.10
2018-12-24T16:36:49.022Z,5.10
2018-12-24T16:39:16.488Z,5.10
2018-12-24T16:41:43.950Z,5.10
2018-12-24T16:44:11.395Z,5.00
2018-12-24T16:46:38.872Z,5.00
2018-12-24T16:49:06.308Z,5.00
2018-12-24T16:51:33.768Z,5.00
2018-12-24T16:54:01.187Z,5.00
2018-12-24T16:56:28.702Z,4.90
2018-12-24T16:58:56.258Z,4.90
2018-12-24T17:01:23.993Z,4.90
2018-12-24T17:03:51.474Z,4.90
2018-12-24T17:06:18.886Z,4.90
2018-12-24T17:08:46.267Z,4.90
2018-12-24T17:11:13.688Z,4.90
2018-12-24T17:13:41.146Z,4.90
2018-12-24T17:16:08.715Z,4.90
2018-12-24T17:18:36.171Z,4.90
2018-12-24T17:21:03.619Z,4.90
2018-12-24T17:23:32.127Z,4.90
2018-12-24T17:25:59.775Z,4.90
2018-12-24T17:28:27.242Z,4.90
2018-12-24T17:30:54.655Z,4.90
2018-12-24T17:33:22.104Z,4.90
2018-12-24T17:35:49.575Z,4.90
2018-12-24T17:38:17.158Z,4.90
2018-12-24T17:40:45.159Z,4.90
2018-12-24T17:43:12.555Z,4.90
2018-12-24T17:45:40.402Z,4.90
2018-12-24T17:48:07.833Z,4.80
2018-12-24T17:50:35.591Z,4.90
2018-12-24T17:53:03.122Z,4.90
2018-12-24T17:55:30.710Z,4.80
2018-12-24T17:57:58.037Z,4.80
2018-12-24T18:00:25.459Z,4.80
2018-12-24T18:02:53.175Z,4.90
2018-12-24T18:05:20.755Z,4.90
2018-12-24T18:07:48.403Z,4.80
2018-12-24T18:10:16.269Z,4.70
2018-12-24T18:12:43.983Z,4.60
2018-12-24T18:15:11.476Z,4.50
2018-12-24T18:17:39.017Z,4.50
2018-12-24T18:20:06.533Z,4.50
2018-12-24T18:22:34.195Z,4.50
2018-12-24T18:25:01.643Z,4.50
2018-12-24T18:27:29.383Z,4.50
2018-12-24T18:29:56.760Z,4.50
2018-12-24T18:32:24.222Z,4.40
2018-12-24T18:34:51.630Z,4.40
2018-12-24T18:37:19.173Z,4.30
2018-12-24T18:39:47.165Z,4.30
2018-12-24T18:42:14.771Z,4.30
2018-12-24T18:44:42.176Z,4.30
2018-12-24T18:47:09.616Z,4.30
2018-12-24T18:49:37.096Z,4.30
2018-12-24T18:52:04.508Z,4.30
2018-12-24T18:54:31.902Z,4.30
2018-12-24T18:56:59.631Z,4.30
2018-12-24T18:59:27.083Z,4.30
2018-12-24T19:01:54.509Z,4.30
2018-12-24T19:04:21.935Z,4.30
2018-12-24T19:06:49.377Z,4.20
2018-12-24T19:09:17.074Z,4.20
2018-12-24T19:11:44.609Z,4.30
2018-12-24T19:14:12.352Z,4.30
2018-12-24T19:16:39.736Z,4.30
2018-12-24T19:19:07.296Z,4.30
2018-12-24T19:21:34.841Z,4.30
2018-12-24T19:24:02.461Z,4.30
2018-12-24T19:26:29.956Z,4.30
2018-12-24T19:28:57.390Z,4.20
2018-12-24T19:31:25.102Z,4.20
2018-12-24T19:33:52.550Z,4.20
2018-12-24T19:36:20.001Z,4.20
2018-12-24T19:38:47.674Z,4.20
2018-12-24T19:41:15.623Z,4.20
2018-12-24T19:43:43.536Z,4.20
2018-12-24T19:46:11.256Z,4.20
2018-12-24T19:48:38.687Z,4.20
2018-12-24T19:51:06.131Z,4.20
2018-12-24T19:53:33.651Z,4.20
2018-12-24T19:56:01.878Z,4.20
2018-12-24T19:58:29.406Z,4.10
2018-12-24T20:00:56.845Z,4.00
2018-12-24T20:03:24.303Z,4.00
2018-12-24T20:05:51.867Z,4.00
2018-12-24T20:08:19.373Z,4.00
2018-12-24T20:10:47.543Z,3.90
2018-12-24T20:13:15.264Z,3.90
2018-12-24T20:15:42.673Z,3.90
2018-12-24T20:18:10.198Z,3.80
2018-12-24T20:20:38.026Z,3.80
2018-12-24T20:23:05.436Z,3.80
2018-12-24T20:25:32.854Z,3.80
2018-12-24T20:28:00.409Z,3.70
2018-12-24T20:30:27.811Z,3.70
2018-12-24T20:32:55.214Z,3.60
2018-12-24T20:35:22.661Z,3.60
2018-12-24T20:37:50.075Z,3.60
2018-12-24T20:40:17.506Z,3.50
2018-12-24T20:42:44.801Z,3.50
2018-12-24T20:45:12.849Z,3.40
2018-12-24T20:47:40.766Z,3.40
2018-12-24T20:50:08.510Z,3.40
2018-12-24T20:52:36.163Z,3.40
2018-12-24T20:55:03.526Z,3.40
2018-12-24T20:57:30.966Z,3.30
2018-12-24T20:59:58.721Z,3.30
2018-12-24T21:02:26.500Z,3.30
2018-12-24T21:04:53.891Z,3.30
2018-12-24T21:07:21.343Z,3.30
2018-12-24T21:09:49.619Z,3.30
2018-12-24T21:12:17.394Z,3.30
2018-12-24T21:14:44.790Z,3.30
2018-12-24T21:17:12.266Z,3.20
2018-12-24T21:19:39.821Z,3.20
2018-12-24T21:22:07.697Z,3.20
2018-12-24T21:24:36.265Z,3.20
2018-12-24T21:27:03.834Z,3.10
2018-12-24T21:29:31.647Z,3.10
2018-12-24T21:31:59.155Z,3.00
2018-12-24T21:34:27.309Z,3.00
2018-12-24T21:36:54.888Z,2.90
2018-12-24T21:39:22.490Z,2.90
2018-12-24T21:41:50.008Z,2.80
2018-12-24T21:44:17.397Z,2.80
2018-12-24T21:46:45.039Z,2.80
2018-12-24T21:49:12.496Z,2.80
2018-12-24T21:51:39.935Z,2.70
2018-12-24T21:54:07.391Z,2.70
2018-12-24T21:56:34.909Z,2.70
2018-12-24T21:59:02.539Z,2.70
2018-12-24T22:01:29.957Z,2.60
2018-12-24T22:03:57.339Z,2.60
2018-12-24T22:06:24.797Z,2.50
2018-12-24T22:08:52.361Z,2.60
2018-12-24T22:11:19.767Z,2.50
2018-12-24T22:13:47.187Z,2.50
2018-12-24T22:16:14.537Z,2.50
2018-12-24T22:18:42.050Z,2.40
2018-12-24T22:21:09.608Z,2.40
2018-12-24T22:23:37.073Z,2.40
2018-12-24T22:26:04.481Z,2.30
2018-12-24T22:28:31.987Z,2.30
2018-12-24T22:30:59.359Z,2.30
2018-12-24T22:33:27.069Z,2.20
2018-12-24T22:35:54.535Z,2.20
2018-12-24T22:38:21.967Z,2.20
2018-12-24T22:40:49.381Z,2.20
2018-12-24T22:43:16.836Z,2.10
2018-12-24T22:45:44.592Z,2.10
2018-12-24T22:48:12.068Z,2.10
2018-12-24T22:50:39.560Z,2.10
2018-12-24T22:53:07.066Z,2.10
2018-12-24T22:55:34.553Z,2.00
2018-12-24T22:58:02.434Z,2.00
2018-12-24T23:00:36.837Z,2.00
2018-12-24T23:03:06.415Z,1.90
2018-12-24T23:05:33.862Z,1.90
2018-12-24T23:08:01.287Z,1.90
2018-12-24T23:10:28.712Z,1.90
2018-12-24T23:12:56.026Z,2.00
2018-12-24T23:15:23.785Z,2.00
2018-12-24T23:17:51.181Z,2.00
2018-12-24T23:20:18.790Z,2.00
2018-12-24T23:22:50.178Z,2.00
2018-12-24T23:25:17.946Z,2.10
2018-12-24T23:27:45.572Z,2.10
2018-12-24T23:30:13.302Z,2.10
2018-12-24T23:32:40.715Z,2.10
2018-12-24T23:35:08.130Z,2.20
2018-12-24T23:37:35.618Z,2.20
2018-12-24T23:40:03.490Z,2.20
2018-12-24T23:42:31.470Z,2.10
2018-12-24T23:44:58.864Z,2.10
2018-12-24T23:47:26.286Z,2.10
2018-12-24T23:49:55.308Z,2.10
2018-12-24T23:52:22.874Z,2.10
2018-12-24T23:54:50.545Z,2.10
2018-12-24T23:57:17.956Z,2.00
2018-12-24T23:59:45.379Z,2.00
